You are not logged in, Click here to log in
馬德拉機場FNC / LPMA 葡萄牙馬德拉聖克魯斯聖卡塔琳娜堂區
ICAO: LPMA Country: 葡萄牙馬德拉聖克魯斯聖卡塔琳娜堂區
Latitude: 32.6958 Longitude: -16.7759
Total Arrivals: 14 Total Departures: 8
Latest Arrival: U27585 (LPPR-LPMA)Arthur. Kung Latest Departure: BR913 (LPMA-KJFK)Arthur. Kung
Scenery:
METAR : LPMA 240530Z 34008KT 9999 SCT016 19/11 Q1027

馬德拉機場FNC

You are accessing this site from IP address 34.201.9.19. Virtual Airline. CMS by phpVMS.Website designed by Zumeweb and edited by Theo Bearman.
There is 0 User(s) Online: | and 17 Guest(s) Online.
All information on this site is for fight simulation purposes only. This site is for flight logging for pilots of Virtual Airline&模擬飛行論壇 FlySim only.